sensor_id;sensor_type;location;lat;lon;timestamp;P1;durP1;ratioP1;P2;durP2;ratioP2
72676;SDS011;60755;51.374;10.662;2022-12-31T00:02:20;2.10;;;2.00;;
72676;SDS011;60755;51.374;10.662;2022-12-31T00:04:47;2.20;;;2.00;;
72676;SDS011;60755;51.374;10.662;2022-12-31T00:07:14;2.00;;;1.90;;
72676;SDS011;60755;51.374;10.662;2022-12-31T00:09:41;2.00;;;1.90;;
72676;SDS011;60755;51.374;10.662;2022-12-31T00:12:08;1.77;;;1.77;;
72676;SDS011;60755;51.374;10.662;2022-12-31T00:14:35;2.10;;;2.00;;
72676;SDS011;60755;51.374;10.662;2022-12-31T00:17:03;2.00;;;1.90;;
72676;SDS011;60755;51.374;10.662;2022-12-31T00:19:30;2.30;;;2.20;;
72676;SDS011;60755;51.374;10.662;2022-12-31T00:21:57;2.00;;;1.93;;
72676;SDS011;60755;51.374;10.662;2022-12-31T00:24:24;2.00;;;2.00;;
72676;SDS011;60755;51.374;10.662;2022-12-31T00:26:55;2.00;;;1.90;;
72676;SDS011;60755;51.374;10.662;2022-12-31T00:29:22;1.80;;;1.80;;
72676;SDS011;60755;51.374;10.662;2022-12-31T00:31:49;1.70;;;1.70;;
72676;SDS011;60755;51.374;10.662;2022-12-31T00:34:17;1.70;;;1.70;;
72676;SDS011;60755;51.374;10.662;2022-12-31T00:36:44;1.70;;;1.70;;
72676;SDS011;60755;51.374;10.662;2022-12-31T00:39:11;1.40;;;1.40;;
72676;SDS011;60755;51.374;10.662;2022-12-31T00:41:38;1.77;;;1.77;;
72676;SDS011;60755;51.374;10.662;2022-12-31T00:44:08;1.50;;;1.50;;
72676;SDS011;60755;51.374;10.662;2022-12-31T00:46:36;1.50;;;1.50;;
72676;SDS011;60755;51.374;10.662;2022-12-31T00:49:03;1.70;;;1.70;;
72676;SDS011;60755;51.374;10.662;2022-12-31T00:51:31;1.87;;;1.60;;
72676;SDS011;60755;51.374;10.662;2022-12-31T00:53:59;1.60;;;1.50;;
72676;SDS011;60755;51.374;10.662;2022-12-31T00:56:27;1.43;;;1.43;;
72676;SDS011;60755;51.374;10.662;2022-12-31T00:58:55;1.40;;;1.40;;
72676;SDS011;60755;51.374;10.662;2022-12-31T01:01:23;1.10;;;1.10;;
72676;SDS011;60755;51.374;10.662;2022-12-31T01:03:52;1.40;;;1.40;;
72676;SDS011;60755;51.374;10.662;2022-12-31T01:06:25;1.50;;;1.30;;
72676;SDS011;60755;51.374;10.662;2022-12-31T01:08:54;1.40;;;1.40;;
72676;SDS011;60755;51.374;10.662;2022-12-31T01:11:21;1.53;;;1.20;;
72676;SDS011;60755;51.374;10.662;2022-12-31T01:13:50;1.30;;;1.20;;
72676;SDS011;60755;51.374;10.662;2022-12-31T01:16:18;1.20;;;1.10;;
72676;SDS011;60755;51.374;10.662;2022-12-31T01:18:47;1.30;;;1.30;;
72676;SDS011;60755;51.374;10.662;2022-12-31T01:21:14;1.13;;;1.13;;
72676;SDS011;60755;51.374;10.662;2022-12-31T01:23:42;1.10;;;1.10;;
72676;SDS011;60755;51.374;10.662;2022-12-31T01:26:11;1.20;;;1.20;;
72676;SDS011;60755;51.374;10.662;2022-12-31T01:28:40;1.00;;;1.00;;
72676;SDS011;60755;51.374;10.662;2022-12-31T01:31:07;1.10;;;1.10;;
72676;SDS011;60755;51.374;10.662;2022-12-31T01:33:36;1.13;;;1.13;;
72676;SDS011;60755;51.374;10.662;2022-12-31T01:36:04;1.60;;;1.20;;
72676;SDS011;60755;51.374;10.662;2022-12-31T01:38:32;1.10;;;1.10;;
72676;SDS011;60755;51.374;10.662;2022-12-31T01:41:00;1.10;;;1.10;;
72676;SDS011;60755;51.374;10.662;2022-12-31T01:43:41;1.47;;;1.10;;
72676;SDS011;60755;51.374;10.662;2022-12-31T01:46:09;0.90;;;0.90;;
72676;SDS011;60755;51.374;10.662;2022-12-31T01:48:38;1.17;;;1.17;;
72676;SDS011;60755;51.374;10.662;2022-12-31T01:51:05;1.00;;;1.00;;
72676;SDS011;60755;51.374;10.662;2022-12-31T01:53:34;1.23;;;1.20;;
72676;SDS011;60755;51.374;10.662;2022-12-31T01:56:02;1.00;;;1.00;;
72676;SDS011;60755;51.374;10.662;2022-12-31T01:58:30;0.93;;;0.93;;
72676;SDS011;60755;51.374;10.662;2022-12-31T02:01:03;1.10;;;1.00;;
72676;SDS011;60755;51.374;10.662;2022-12-31T02:03:33;1.17;;;1.17;;
72676;SDS011;60755;51.374;10.662;2022-12-31T02:06:02;0.93;;;0.93;;
72676;SDS011;60755;51.374;10.662;2022-12-31T02:08:34;1.10;;;1.10;;
72676;SDS011;60755;51.374;10.662;2022-12-31T02:11:15;1.10;;;1.10;;
72676;SDS011;60755;51.374;10.662;2022-12-31T02:13:47;1.50;;;1.40;;
72676;SDS011;60755;51.374;10.662;2022-12-31T02:16:16;1.00;;;1.00;;
72676;SDS011;60755;51.374;10.662;2022-12-31T02:18:48;1.10;;;1.10;;
72676;SDS011;60755;51.374;10.662;2022-12-31T02:21:27;1.20;;;1.20;;
72676;SDS011;60755;51.374;10.662;2022-12-31T02:24:28;1.30;;;1.30;;
72676;SDS011;60755;51.374;10.662;2022-12-31T02:27:06;1.33;;;1.33;;
72676;SDS011;60755;51.374;10.662;2022-12-31T02:32:31;1.30;;;1.30;;
72676;SDS011;60755;51.374;10.662;2022-12-31T02:35:06;1.20;;;1.20;;
72676;SDS011;60755;51.374;10.662;2022-12-31T02:37:37;1.63;;;1.50;;
72676;SDS011;60755;51.374;10.662;2022-12-31T02:40:09;1.37;;;1.37;;
72676;SDS011;60755;51.374;10.662;2022-12-31T02:42:40;1.70;;;1.70;;
72676;SDS011;60755;51.374;10.662;2022-12-31T02:45:09;1.53;;;1.53;;
72676;SDS011;60755;51.374;10.662;2022-12-31T02:47:42;1.90;;;1.90;;
72676;SDS011;60755;51.374;10.662;2022-12-31T02:50:19;2.20;;;2.10;;
72676;SDS011;60755;51.374;10.662;2022-12-31T02:52:57;1.60;;;1.60;;
72676;SDS011;60755;51.374;10.662;2022-12-31T02:55:37;1.83;;;1.83;;
72676;SDS011;60755;51.374;10.662;2022-12-31T02:58:12;1.90;;;1.90;;
72676;SDS011;60755;51.374;10.662;2022-12-31T03:01:09;1.80;;;1.80;;
72676;SDS011;60755;51.374;10.662;2022-12-31T03:03:56;1.60;;;1.50;;
72676;SDS011;60755;51.374;10.662;2022-12-31T03:06:48;1.93;;;1.60;;
72676;SDS011;60755;51.374;10.662;2022-12-31T03:09:15;1.33;;;1.33;;
72676;SDS011;60755;51.374;10.662;2022-12-31T03:11:42;1.20;;;1.20;;
72676;SDS011;60755;51.374;10.662;2022-12-31T03:14:27;1.50;;;1.50;;
72676;SDS011;60755;51.374;10.662;2022-12-31T03:16:55;1.30;;;1.30;;
72676;SDS011;60755;51.374;10.662;2022-12-31T03:19:22;1.43;;;1.43;;
72676;SDS011;60755;51.374;10.662;2022-12-31T03:22:06;1.37;;;1.30;;
72676;SDS011;60755;51.374;10.662;2022-12-31T03:24:55;1.57;;;1.47;;
72676;SDS011;60755;51.374;10.662;2022-12-31T03:27:43;1.80;;;1.70;;
72676;SDS011;60755;51.374;10.662;2022-12-31T03:30:11;1.70;;;1.70;;
72676;SDS011;60755;51.374;10.662;2022-12-31T03:32:41;1.50;;;1.50;;
72676;SDS011;60755;51.374;10.662;2022-12-31T03:35:09;1.60;;;1.60;;
72676;SDS011;60755;51.374;10.662;2022-12-31T03:37:37;1.23;;;1.23;;
72676;SDS011;60755;51.374;10.662;2022-12-31T03:40:05;1.20;;;1.20;;
72676;SDS011;60755;51.374;10.662;2022-12-31T03:42:33;1.30;;;1.30;;
72676;SDS011;60755;51.374;10.662;2022-12-31T03:45:00;1.50;;;1.40;;
72676;SDS011;60755;51.374;10.662;2022-12-31T03:47:27;1.40;;;1.40;;
72676;SDS011;60755;51.374;10.662;2022-12-31T03:49:55;2.00;;;1.70;;
72676;SDS011;60755;51.374;10.662;2022-12-31T03:52:22;1.33;;;1.33;;
72676;SDS011;60755;51.374;10.662;2022-12-31T03:54:49;1.20;;;1.20;;
72676;SDS011;60755;51.374;10.662;2022-12-31T03:57:16;1.20;;;1.20;;
72676;SDS011;60755;51.374;10.662;2022-12-31T03:59:43;1.30;;;1.20;;
72676;SDS011;60755;51.374;10.662;2022-12-31T04:02:10;1.10;;;1.10;;
72676;SDS011;60755;51.374;10.662;2022-12-31T04:04:37;1.00;;;1.00;;
72676;SDS011;60755;51.374;10.662;2022-12-31T04:07:05;1.07;;;1.07;;
72676;SDS011;60755;51.374;10.662;2022-12-31T04:09:32;1.10;;;1.00;;
72676;SDS011;60755;51.374;10.662;2022-12-31T04:11:59;1.10;;;1.10;;
72676;SDS011;60755;51.374;10.662;2022-12-31T04:14:27;1.00;;;1.00;;
72676;SDS011;60755;51.374;10.662;2022-12-31T04:16:53;0.70;;;0.70;;
72676;SDS011;60755;51.374;10.662;2022-12-31T04:19:20;0.90;;;0.90;;
72676;SDS011;60755;51.374;10.662;2022-12-31T04:21:47;0.80;;;0.80;;
72676;SDS011;60755;51.374;10.662;2022-12-31T04:24:16;0.80;;;0.80;;
72676;SDS011;60755;51.374;10.662;2022-12-31T04:26:43;0.70;;;0.70;;
72676;SDS011;60755;51.374;10.662;2022-12-31T04:29:10;0.93;;;0.93;;
72676;SDS011;60755;51.374;10.662;2022-12-31T04:31:37;1.13;;;1.13;;
72676;SDS011;60755;51.374;10.662;2022-12-31T04:34:03;0.80;;;0.80;;
72676;SDS011;60755;51.374;10.662;2022-12-31T04:36:30;0.90;;;0.90;;
72676;SDS011;60755;51.374;10.662;2022-12-31T04:38:57;0.60;;;0.60;;
72676;SDS011;60755;51.374;10.662;2022-12-31T04:41:26;0.70;;;0.70;;
72676;SDS011;60755;51.374;10.662;2022-12-31T04:43:54;0.60;;;0.60;;
72676;SDS011;60755;51.374;10.662;2022-12-31T04:46:22;0.70;;;0.70;;
72676;SDS011;60755;51.374;10.662;2022-12-31T04:48:51;0.60;;;0.60;;
72676;SDS011;60755;51.374;10.662;2022-12-31T04:51:18;0.50;;;0.50;;
72676;SDS011;60755;51.374;10.662;2022-12-31T04:53:46;1.40;;;0.70;;
72676;SDS011;60755;51.374;10.662;2022-12-31T04:56:13;0.60;;;0.60;;
72676;SDS011;60755;51.374;10.662;2022-12-31T04:58:44;0.70;;;0.70;;
72676;SDS011;60755;51.374;10.662;2022-12-31T05:01:11;0.70;;;0.70;;
72676;SDS011;60755;51.374;10.662;2022-12-31T05:03:39;1.90;;;0.73;;
72676;SDS011;60755;51.374;10.662;2022-12-31T05:06:08;0.50;;;0.50;;
72676;SDS011;60755;51.374;10.662;2022-12-31T05:08:37;0.70;;;0.70;;
72676;SDS011;60755;51.374;10.662;2022-12-31T05:11:04;0.70;;;0.70;;
72676;SDS011;60755;51.374;10.662;2022-12-31T05:13:31;0.60;;;0.60;;
72676;SDS011;60755;51.374;10.662;2022-12-31T05:15:59;0.70;;;0.70;;
72676;SDS011;60755;51.374;10.662;2022-12-31T05:18:26;0.67;;;0.67;;
72676;SDS011;60755;51.374;10.662;2022-12-31T05:20:54;0.60;;;0.60;;
72676;SDS011;60755;51.374;10.662;2022-12-31T05:23:22;1.60;;;0.50;;
72676;SDS011;60755;51.374;10.662;2022-12-31T05:25:49;0.60;;;0.60;;
72676;SDS011;60755;51.374;10.662;2022-12-31T05:28:17;0.77;;;0.77;;
72676;SDS011;60755;51.374;10.662;2022-12-31T05:30:46;0.60;;;0.60;;
72676;SDS011;60755;51.374;10.662;2022-12-31T05:33:16;0.67;;;0.67;;
72676;SDS011;60755;51.374;10.662;2022-12-31T05:35:43;0.90;;;0.90;;
72676;SDS011;60755;51.374;10.662;2022-12-31T05:38:11;0.60;;;0.60;;
72676;SDS011;60755;51.374;10.662;2022-12-31T05:40:38;0.60;;;0.60;;
72676;SDS011;60755;51.374;10.662;2022-12-31T05:43:05;1.13;;;0.57;;
72676;SDS011;60755;51.374;10.662;2022-12-31T05:45:31;0.70;;;0.70;;
72676;SDS011;60755;51.374;10.662;2022-12-31T05:47:58;0.70;;;0.70;;
72676;SDS011;60755;51.374;10.662;2022-12-31T05:50:27;0.80;;;0.80;;
72676;SDS011;60755;51.374;10.662;2022-12-31T05:52:54;0.87;;;0.70;;
72676;SDS011;60755;51.374;10.662;2022-12-31T05:55:21;0.70;;;0.70;;
72676;SDS011;60755;51.374;10.662;2022-12-31T05:57:49;0.73;;;0.63;;
72676;SDS011;60755;51.374;10.662;2022-12-31T06:00:16;0.70;;;0.70;;
72676;SDS011;60755;51.374;10.662;2022-12-31T06:02:43;1.07;;;0.77;;
72676;SDS011;60755;51.374;10.662;2022-12-31T06:05:11;0.77;;;0.77;;
72676;SDS011;60755;51.374;10.662;2022-12-31T06:07:39;0.80;;;0.80;;
72676;SDS011;60755;51.374;10.662;2022-12-31T06:10:06;0.87;;;0.87;;
72676;SDS011;60755;51.374;10.662;2022-12-31T06:12:34;0.73;;;0.73;;
72676;SDS011;60755;51.374;10.662;2022-12-31T06:15:01;1.00;;;1.00;;
72676;SDS011;60755;51.374;10.662;2022-12-31T06:17:29;0.70;;;0.70;;
72676;SDS011;60755;51.374;10.662;2022-12-31T06:19:57;0.80;;;0.80;;
72676;SDS011;60755;51.374;10.662;2022-12-31T06:22:24;0.70;;;0.70;;
72676;SDS011;60755;51.374;10.662;2022-12-31T06:24:53;0.70;;;0.70;;
72676;SDS011;60755;51.374;10.662;2022-12-31T06:27:20;0.80;;;0.80;;
72676;SDS011;60755;51.374;10.662;2022-12-31T06:29:47;0.80;;;0.80;;
72676;SDS011;60755;51.374;10.662;2022-12-31T06:32:15;0.93;;;0.77;;
72676;SDS011;60755;51.374;10.662;2022-12-31T06:34:42;0.70;;;0.70;;
72676;SDS011;60755;51.374;10.662;2022-12-31T06:37:09;0.73;;;0.73;;
72676;SDS011;60755;51.374;10.662;2022-12-31T06:39:36;0.70;;;0.70;;
72676;SDS011;60755;51.374;10.662;2022-12-31T06:42:05;0.80;;;0.80;;
72676;SDS011;60755;51.374;10.662;2022-12-31T06:44:32;0.80;;;0.80;;
72676;SDS011;60755;51.374;10.662;2022-12-31T06:46:58;0.80;;;0.80;;
72676;SDS011;60755;51.374;10.662;2022-12-31T06:49:26;1.40;;;0.80;;
72676;SDS011;60755;51.374;10.662;2022-12-31T06:51:53;0.80;;;0.80;;
72676;SDS011;60755;51.374;10.662;2022-12-31T06:54:20;1.17;;;0.90;;
72676;SDS011;60755;51.374;10.662;2022-12-31T06:56:47;0.70;;;0.70;;
72676;SDS011;60755;51.374;10.662;2022-12-31T06:59:26;0.97;;;0.90;;
72676;SDS011;60755;51.374;10.662;2022-12-31T07:07:47;1.00;;;1.00;;
72676;SDS011;60755;51.374;10.662;2022-12-31T07:10:23;0.80;;;0.80;;
72676;SDS011;60755;51.374;10.662;2022-12-31T07:15:59;0.90;;;0.90;;
72676;SDS011;60755;51.374;10.662;2022-12-31T07:18:35;1.00;;;0.80;;
72676;SDS011;60755;51.374;10.662;2022-12-31T07:21:08;1.30;;;1.23;;
72676;SDS011;60755;51.374;10.662;2022-12-31T07:23:38;1.90;;;1.80;;
72676;SDS011;60755;51.374;10.662;2022-12-31T07:26:07;1.00;;;1.00;;
72676;SDS011;60755;51.374;10.662;2022-12-31T07:28:46;0.90;;;0.90;;
72676;SDS011;60755;51.374;10.662;2022-12-31T07:31:27;0.80;;;0.80;;
72676;SDS011;60755;51.374;10.662;2022-12-31T07:34:00;2.93;;;0.97;;
72676;SDS011;60755;51.374;10.662;2022-12-31T07:36:43;1.00;;;1.00;;
72676;SDS011;60755;51.374;10.662;2022-12-31T07:39:24;1.03;;;1.03;;
72676;SDS011;60755;51.374;10.662;2022-12-31T07:41:58;2.00;;;0.90;;
72676;SDS011;60755;51.374;10.662;2022-12-31T07:44:37;1.23;;;1.23;;
72676;SDS011;60755;51.374;10.662;2022-12-31T07:47:19;0.90;;;0.90;;
72676;SDS011;60755;51.374;10.662;2022-12-31T07:49:48;1.70;;;1.00;;
72676;SDS011;60755;51.374;10.662;2022-12-31T07:52:16;1.20;;;1.13;;
72676;SDS011;60755;51.374;10.662;2022-12-31T07:54:44;0.80;;;0.80;;
72676;SDS011;60755;51.374;10.662;2022-12-31T07:57:11;0.70;;;0.70;;
72676;SDS011;60755;51.374;10.662;2022-12-31T07:59:46;1.03;;;1.00;;
72676;SDS011;60755;51.374;10.662;2022-12-31T08:02:36;0.80;;;0.80;;
72676;SDS011;60755;51.374;10.662;2022-12-31T08:05:15;2.23;;;0.90;;
72676;SDS011;60755;51.374;10.662;2022-12-31T08:07:47;0.87;;;0.87;;
72676;SDS011;60755;51.374;10.662;2022-12-31T08:10:25;1.53;;;0.90;;
72676;SDS011;60755;51.374;10.662;2022-12-31T08:13:00;0.90;;;0.90;;
72676;SDS011;60755;51.374;10.662;2022-12-31T08:15:29;0.90;;;0.90;;
72676;SDS011;60755;51.374;10.662;2022-12-31T08:17:58;0.80;;;0.80;;
72676;SDS011;60755;51.374;10.662;2022-12-31T08:20:25;1.20;;;1.20;;
72676;SDS011;60755;51.374;10.662;2022-12-31T08:23:01;2.87;;;1.20;;
72676;SDS011;60755;51.374;10.662;2022-12-31T08:25:40;2.17;;;1.00;;
72676;SDS011;60755;51.374;10.662;2022-12-31T08:28:22;0.93;;;0.93;;
72676;SDS011;60755;51.374;10.662;2022-12-31T08:30:59;1.17;;;0.93;;
72676;SDS011;60755;51.374;10.662;2022-12-31T08:33:33;0.80;;;0.80;;
72676;SDS011;60755;51.374;10.662;2022-12-31T08:36:10;1.37;;;1.20;;
72676;SDS011;60755;51.374;10.662;2022-12-31T08:38:46;1.75;;;1.02;;
72676;SDS011;60755;51.374;10.662;2022-12-31T08:41:22;1.00;;;0.90;;
72676;SDS011;60755;51.374;10.662;2022-12-31T08:43:57;1.00;;;1.00;;
72676;SDS011;60755;51.374;10.662;2022-12-31T08:46:35;1.03;;;1.00;;
72676;SDS011;60755;51.374;10.662;2022-12-31T08:49:11;1.03;;;1.03;;
72676;SDS011;60755;51.374;10.662;2022-12-31T08:51:39;1.30;;;1.20;;
72676;SDS011;60755;51.374;10.662;2022-12-31T08:54:08;1.27;;;1.20;;
72676;SDS011;60755;51.374;10.662;2022-12-31T08:56:38;1.23;;;1.13;;
72676;SDS011;60755;51.374;10.662;2022-12-31T08:59:13;1.38;;;1.25;;
72676;SDS011;60755;51.374;10.662;2022-12-31T09:01:53;2.43;;;2.33;;
72676;SDS011;60755;51.374;10.662;2022-12-31T09:04:43;1.50;;;1.40;;
72676;SDS011;60755;51.374;10.662;2022-12-31T09:07:17;3.47;;;2.73;;
72676;SDS011;60755;51.374;10.662;2022-12-31T09:09:51;7.70;;;4.72;;
72676;SDS011;60755;51.374;10.662;2022-12-31T09:12:29;10.32;;;6.22;;
72676;SDS011;60755;51.374;10.662;2022-12-31T09:15:03;2.67;;;2.47;;
72676;SDS011;60755;51.374;10.662;2022-12-31T09:17:42;1.33;;;1.23;;
72676;SDS011;60755;51.374;10.662;2022-12-31T09:20:16;1.03;;;1.03;;
72676;SDS011;60755;51.374;10.662;2022-12-31T09:22:48;1.98;;;1.10;;
72676;SDS011;60755;51.374;10.662;2022-12-31T09:25:17;3.20;;;1.00;;
72676;SDS011;60755;51.374;10.662;2022-12-31T09:27:50;1.38;;;1.27;;
72676;SDS011;60755;51.374;10.662;2022-12-31T09:30:25;1.83;;;1.37;;
72676;SDS011;60755;51.374;10.662;2022-12-31T09:32:59;1.20;;;1.20;;
72676;SDS011;60755;51.374;10.662;2022-12-31T09:35:33;1.17;;;1.17;;
72676;SDS011;60755;51.374;10.662;2022-12-31T09:38:05;1.38;;;1.30;;
72676;SDS011;60755;51.374;10.662;2022-12-31T09:46:46;1.58;;;1.50;;
72676;SDS011;60755;51.374;10.662;2022-12-31T09:55:44;5.03;;;1.50;;
72676;SDS011;60755;51.374;10.662;2022-12-31T09:58:19;1.65;;;1.65;;
72676;SDS011;60755;51.374;10.662;2022-12-31T10:00:58;2.08;;;1.15;;
72676;SDS011;60755;51.374;10.662;2022-12-31T10:03:41;1.00;;;1.00;;
72676;SDS011;60755;51.374;10.662;2022-12-31T10:06:27;2.28;;;1.08;;
72676;SDS011;60755;51.374;10.662;2022-12-31T10:09:12;1.00;;;1.00;;
72676;SDS011;60755;51.374;10.662;2022-12-31T10:12:03;3.13;;;1.13;;
72676;SDS011;60755;51.374;10.662;2022-12-31T10:14:47;1.10;;;1.10;;
72676;SDS011;60755;51.374;10.662;2022-12-31T10:17:35;1.60;;;1.50;;
72676;SDS011;60755;51.374;10.662;2022-12-31T10:20:29;1.08;;;1.08;;
72676;SDS011;60755;51.374;10.662;2022-12-31T10:23:14;1.35;;;1.25;;
72676;SDS011;60755;51.374;10.662;2022-12-31T10:25:57;1.40;;;1.30;;
72676;SDS011;60755;51.374;10.662;2022-12-31T10:28:36;3.47;;;1.77;;
72676;SDS011;60755;51.374;10.662;2022-12-31T10:31:13;2.33;;;2.00;;
72676;SDS011;60755;51.374;10.662;2022-12-31T10:33:42;1.83;;;1.30;;
72676;SDS011;60755;51.374;10.662;2022-12-31T10:36:17;2.53;;;2.33;;
72676;SDS011;60755;51.374;10.662;2022-12-31T10:38:52;3.75;;;2.53;;
72676;SDS011;60755;51.374;10.662;2022-12-31T10:47:44;1.42;;;1.33;;
72676;SDS011;60755;51.374;10.662;2022-12-31T10:50:32;1.40;;;1.40;;
72676;SDS011;60755;51.374;10.662;2022-12-31T10:56:37;1.48;;;1.40;;
72676;SDS011;60755;51.374;10.662;2022-12-31T10:59:36;1.58;;;1.40;;
72676;SDS011;60755;51.374;10.662;2022-12-31T11:02:37;1.42;;;1.20;;
72676;SDS011;60755;51.374;10.662;2022-12-31T11:08:34;1.30;;;1.25;;
72676;SDS011;60755;51.374;10.662;2022-12-31T11:11:26;1.58;;;1.20;;
72676;SDS011;60755;51.374;10.662;2022-12-31T11:14:10;1.27;;;1.10;;
72676;SDS011;60755;51.374;10.662;2022-12-31T11:16:56;1.75;;;1.00;;
72676;SDS011;60755;51.374;10.662;2022-12-31T11:19:35;1.80;;;1.15;;
72676;SDS011;60755;51.374;10.662;2022-12-31T11:22:22;1.52;;;0.93;;
72676;SDS011;60755;51.374;10.662;2022-12-31T11:25:15;1.48;;;1.10;;
72676;SDS011;60755;51.374;10.662;2022-12-31T11:31:01;3.15;;;1.25;;
72676;SDS011;60755;51.374;10.662;2022-12-31T11:33:42;3.03;;;1.20;;
72676;SDS011;60755;51.374;10.662;2022-12-31T11:36:25;1.15;;;1.10;;
72676;SDS011;60755;51.374;10.662;2022-12-31T11:39:11;2.05;;;1.10;;
72676;SDS011;60755;51.374;10.662;2022-12-31T11:41:51;1.58;;;1.13;;
72676;SDS011;60755;51.374;10.662;2022-12-31T11:44:33;1.85;;;1.00;;
72676;SDS011;60755;51.374;10.662;2022-12-31T11:47:24;1.88;;;1.10;;
72676;SDS011;60755;51.374;10.662;2022-12-31T11:50:16;1.15;;;1.10;;
72676;SDS011;60755;51.374;10.662;2022-12-31T11:53:03;1.20;;;1.10;;
72676;SDS011;60755;51.374;10.662;2022-12-31T11:55:46;0.85;;;0.85;;
72676;SDS011;60755;51.374;10.662;2022-12-31T11:58:22;2.60;;;1.20;;
72676;SDS011;60755;51.374;10.662;2022-12-31T12:00:53;1.92;;;1.00;;
72676;SDS011;60755;51.374;10.662;2022-12-31T12:03:22;1.00;;;1.00;;
72676;SDS011;60755;51.374;10.662;2022-12-31T12:05:50;0.90;;;0.90;;
72676;SDS011;60755;51.374;10.662;2022-12-31T12:08:18;1.77;;;1.10;;
72676;SDS011;60755;51.374;10.662;2022-12-31T12:10:45;0.90;;;0.90;;
72676;SDS011;60755;51.374;10.662;2022-12-31T12:13:20;1.00;;;1.00;;
72676;SDS011;60755;51.374;10.662;2022-12-31T12:15:50;1.05;;;1.00;;
72676;SDS011;60755;51.374;10.662;2022-12-31T12:18:24;0.90;;;0.90;;
72676;SDS011;60755;51.374;10.662;2022-12-31T12:21:05;1.40;;;0.93;;
72676;SDS011;60755;51.374;10.662;2022-12-31T12:23:37;3.60;;;1.20;;
72676;SDS011;60755;51.374;10.662;2022-12-31T12:26:05;1.23;;;1.10;;
72676;SDS011;60755;51.374;10.662;2022-12-31T12:28:42;1.55;;;1.45;;
72676;SDS011;60755;51.374;10.662;2022-12-31T12:31:16;2.42;;;1.10;;
72676;SDS011;60755;51.374;10.662;2022-12-31T12:33:46;1.85;;;0.95;;
72676;SDS011;60755;51.374;10.662;2022-12-31T12:36:15;1.20;;;0.90;;
72676;SDS011;60755;51.374;10.662;2022-12-31T12:38:45;1.55;;;1.20;;
72676;SDS011;60755;51.374;10.662;2022-12-31T12:41:18;2.05;;;0.77;;
72676;SDS011;60755;51.374;10.662;2022-12-31T12:43:46;1.85;;;1.10;;
72676;SDS011;60755;51.374;10.662;2022-12-31T12:46:17;1.00;;;1.00;;
72676;SDS011;60755;51.374;10.662;2022-12-31T12:48:47;2.25;;;1.10;;
72676;SDS011;60755;51.374;10.662;2022-12-31T12:51:22;1.27;;;1.17;;
72676;SDS011;60755;51.374;10.662;2022-12-31T12:54:05;0.93;;;0.93;;
72676;SDS011;60755;51.374;10.662;2022-12-31T12:56:41;1.90;;;1.20;;
72676;SDS011;60755;51.374;10.662;2022-12-31T12:59:21;1.38;;;0.85;;
72676;SDS011;60755;51.374;10.662;2022-12-31T13:02:15;2.00;;;1.80;;
72676;SDS011;60755;51.374;10.662;2022-12-31T13:05:01;1.25;;;1.25;;
72676;SDS011;60755;51.374;10.662;2022-12-31T13:07:41;3.13;;;2.20;;
72676;SDS011;60755;51.374;10.662;2022-12-31T13:10:27;2.40;;;1.45;;
72676;SDS011;60755;51.374;10.662;2022-12-31T13:13:10;1.60;;;1.50;;
72676;SDS011;60755;51.374;10.662;2022-12-31T13:15:49;1.85;;;1.75;;
72676;SDS011;60755;51.374;10.662;2022-12-31T13:18:27;1.38;;;1.38;;
72676;SDS011;60755;51.374;10.662;2022-12-31T13:21:06;1.33;;;1.25;;
72676;SDS011;60755;51.374;10.662;2022-12-31T13:23:48;1.33;;;1.23;;
72676;SDS011;60755;51.374;10.662;2022-12-31T13:26:23;1.38;;;1.30;;
72676;SDS011;60755;51.374;10.662;2022-12-31T13:28:54;2.65;;;1.73;;
72676;SDS011;60755;51.374;10.662;2022-12-31T13:31:25;2.90;;;1.60;;
72676;SDS011;60755;51.374;10.662;2022-12-31T13:33:58;1.38;;;1.27;;
72676;SDS011;60755;51.374;10.662;2022-12-31T13:36:30;1.50;;;1.43;;
72676;SDS011;60755;51.374;10.662;2022-12-31T13:39:01;1.77;;;1.45;;
72676;SDS011;60755;51.374;10.662;2022-12-31T13:41:33;1.90;;;1.50;;
72676;SDS011;60755;51.374;10.662;2022-12-31T13:44:13;1.30;;;1.20;;
72676;SDS011;60755;51.374;10.662;2022-12-31T13:46:46;2.23;;;1.50;;
72676;SDS011;60755;51.374;10.662;2022-12-31T13:49:20;2.00;;;1.20;;
72676;SDS011;60755;51.374;10.662;2022-12-31T13:51:53;2.05;;;1.30;;
72676;SDS011;60755;51.374;10.662;2022-12-31T13:54:27;1.20;;;1.20;;
72676;SDS011;60755;51.374;10.662;2022-12-31T13:57:03;2.50;;;1.42;;
72676;SDS011;60755;51.374;10.662;2022-12-31T13:59:35;1.98;;;1.55;;
72676;SDS011;60755;51.374;10.662;2022-12-31T14:02:07;1.53;;;1.43;;
72676;SDS011;60755;51.374;10.662;2022-12-31T14:04:49;1.85;;;1.27;;
72676;SDS011;60755;51.374;10.662;2022-12-31T14:07:21;1.20;;;1.20;;
72676;SDS011;60755;51.374;10.662;2022-12-31T14:09:53;2.13;;;1.80;;
72676;SDS011;60755;51.374;10.662;2022-12-31T14:12:24;1.30;;;1.20;;
72676;SDS011;60755;51.374;10.662;2022-12-31T14:15:05;1.48;;;1.38;;
72676;SDS011;60755;51.374;10.662;2022-12-31T14:17:40;2.43;;;1.77;;
72676;SDS011;60755;51.374;10.662;2022-12-31T14:20:17;1.30;;;1.30;;
72676;SDS011;60755;51.374;10.662;2022-12-31T14:22:55;4.30;;;1.90;;
72676;SDS011;60755;51.374;10.662;2022-12-31T14:25:29;1.33;;;1.23;;
72676;SDS011;60755;51.374;10.662;2022-12-31T14:28:03;1.48;;;1.38;;
72676;SDS011;60755;51.374;10.662;2022-12-31T14:30:35;2.17;;;1.50;;
72676;SDS011;60755;51.374;10.662;2022-12-31T14:36:03;1.90;;;1.60;;
72676;SDS011;60755;51.374;10.662;2022-12-31T14:38:43;2.20;;;1.30;;
72676;SDS011;60755;51.374;10.662;2022-12-31T14:41:26;2.23;;;1.53;;
72676;SDS011;60755;51.374;10.662;2022-12-31T14:44:12;1.67;;;1.58;;
72676;SDS011;60755;51.374;10.662;2022-12-31T14:46:57;1.70;;;1.55;;
72676;SDS011;60755;51.374;10.662;2022-12-31T14:49:33;1.80;;;1.70;;
72676;SDS011;60755;51.374;10.662;2022-12-31T14:52:18;2.90;;;2.00;;
72676;SDS011;60755;51.374;10.662;2022-12-31T14:54:56;1.50;;;1.40;;
72676;SDS011;60755;51.374;10.662;2022-12-31T14:57:32;3.60;;;1.43;;
72676;SDS011;60755;51.374;10.662;2022-12-31T15:02:59;3.67;;;1.97;;
72676;SDS011;60755;51.374;10.662;2022-12-31T15:05:28;1.83;;;1.80;;
72676;SDS011;60755;51.374;10.662;2022-12-31T15:11:03;3.03;;;2.73;;
72676;SDS011;60755;51.374;10.662;2022-12-31T15:13:47;3.10;;;2.90;;
72676;SDS011;60755;51.374;10.662;2022-12-31T15:16:40;3.50;;;2.53;;
72676;SDS011;60755;51.374;10.662;2022-12-31T15:22:32;2.00;;;1.80;;
72676;SDS011;60755;51.374;10.662;2022-12-31T15:25:16;1.63;;;1.50;;
72676;SDS011;60755;51.374;10.662;2022-12-31T15:27:47;1.60;;;1.50;;
72676;SDS011;60755;51.374;10.662;2022-12-31T15:30:28;1.70;;;1.47;;
72676;SDS011;60755;51.374;10.662;2022-12-31T15:33:03;4.20;;;1.57;;
72676;SDS011;60755;51.374;10.662;2022-12-31T15:35:45;1.90;;;1.70;;
72676;SDS011;60755;51.374;10.662;2022-12-31T15:38:28;2.40;;;1.97;;
72676;SDS011;60755;51.374;10.662;2022-12-31T15:40:56;1.80;;;1.70;;
72676;SDS011;60755;51.374;10.662;2022-12-31T15:43:27;2.20;;;1.77;;
72676;SDS011;60755;51.374;10.662;2022-12-31T15:46:00;2.63;;;2.00;;
72676;SDS011;60755;51.374;10.662;2022-12-31T15:48:36;3.10;;;2.10;;
72676;SDS011;60755;51.374;10.662;2022-12-31T15:51:10;2.33;;;2.17;;
72676;SDS011;60755;51.374;10.662;2022-12-31T15:53:42;2.20;;;2.00;;
72676;SDS011;60755;51.374;10.662;2022-12-31T15:56:17;6.23;;;3.30;;
72676;SDS011;60755;51.374;10.662;2022-12-31T15:58:46;5.47;;;3.57;;
72676;SDS011;60755;51.374;10.662;2022-12-31T16:01:18;3.33;;;2.10;;
72676;SDS011;60755;51.374;10.662;2022-12-31T16:03:56;4.10;;;3.58;;